createdAt,value
2022-11-29T00:01:42.771Z,101141.13
2022-11-29T00:04:15.051Z,101142.06
2022-11-29T00:06:41.986Z,101146.06
2022-11-29T00:09:12.448Z,101142.88
2022-11-29T00:11:59.702Z,101138.66
2022-11-29T00:14:31.203Z,101147.72
2022-11-29T00:17:02.585Z,101140.25
2022-11-29T00:19:34.621Z,101142.66
2022-11-29T00:22:03.405Z,101149.34
2022-11-29T00:24:32.351Z,101143.38
2022-11-29T00:27:02.129Z,101144.78
2022-11-29T00:29:30.320Z,101151.94
2022-11-29T00:31:57.515Z,101155.84
2022-11-29T00:34:27.275Z,101152.69
2022-11-29T00:36:54.227Z,101156.13
2022-11-29T00:39:24.482Z,101155.00
2022-11-29T00:41:54.900Z,101148.19
2022-11-29T00:44:24.037Z,101150.09
2022-11-29T00:46:51.235Z,101152.03
2022-11-29T00:49:23.273Z,101147.59
2022-11-29T00:51:50.695Z,101145.75
2022-11-29T00:54:20.244Z,101145.22
2022-11-29T00:56:47.404Z,101147.34
2022-11-29T00:59:14.502Z,101148.91
2022-11-29T01:01:41.615Z,101141.25
2022-11-29T01:04:08.579Z,101144.34
2022-11-29T01:06:35.702Z,101145.47
2022-11-29T01:09:03.055Z,101133.94
2022-11-29T01:11:32.556Z,101138.34
2022-11-29T01:14:04.250Z,101134.06
2022-11-29T01:16:34.731Z,101139.59
2022-11-29T01:19:02.653Z,101143.53
2022-11-29T01:21:29.923Z,101144.94
2022-11-29T01:23:57.510Z,101142.78
2022-11-29T01:26:28.746Z,101145.03
2022-11-29T01:28:58.563Z,101147.97
2022-11-29T01:31:33.371Z,101147.34
2022-11-29T01:34:03.543Z,101149.16
2022-11-29T01:36:35.670Z,101158.22
2022-11-29T01:39:06.801Z,101158.38
2022-11-29T01:41:37.080Z,101158.38
2022-11-29T01:44:12.801Z,101164.22
2022-11-29T01:46:46.024Z,101160.22
2022-11-29T01:49:25.047Z,101168.38
2022-11-29T01:52:05.846Z,101162.28
2022-11-29T01:54:40.317Z,101166.28
2022-11-29T01:57:11.699Z,101156.72
2022-11-29T01:59:51.170Z,101164.31
2022-11-29T02:02:27.665Z,101160.22
2022-11-29T02:04:55.121Z,101165.34
2022-11-29T02:07:22.524Z,101172.00
2022-11-29T02:09:52.482Z,101165.25
2022-11-29T02:12:45.327Z,101164.06
2022-11-29T02:15:43.446Z,101160.03
2022-11-29T02:18:15.911Z,101159.50
2022-11-29T02:21:10.967Z,101168.41
2022-11-29T02:24:08.474Z,101159.63
2022-11-29T02:27:07.548Z,101166.53
2022-11-29T02:30:02.711Z,101169.69
2022-11-29T02:32:56.744Z,101164.41
2022-11-29T02:35:44.969Z,101173.63
2022-11-29T02:38:51.254Z,101174.78
2022-11-29T02:41:46.848Z,101174.41
2022-11-29T02:44:49.399Z,101177.47
2022-11-29T02:47:35.337Z,101172.78
2022-11-29T02:50:25.113Z,101176.94
2022-11-29T02:53:36.140Z,101181.19
2022-11-29T02:56:31.495Z,101174.38
2022-11-29T02:59:54.014Z,101185.16
2022-11-29T03:03:02.407Z,101190.34
2022-11-29T03:05:50.990Z,101184.75
2022-11-29T03:08:46.921Z,101194.88
2022-11-29T03:11:52.032Z,101188.78
2022-11-29T03:14:30.099Z,101197.88
2022-11-29T03:17:49.329Z,101198.22
2022-11-29T03:20:45.814Z,101202.69
2022-11-29T03:23:38.204Z,101202.34
2022-11-29T03:26:15.212Z,101201.13
2022-11-29T03:29:23.948Z,101193.63
2022-11-29T03:32:06.921Z,101193.78
2022-11-29T03:35:30.362Z,101206.19
2022-11-29T03:38:09.835Z,101213.28
2022-11-29T03:40:54.531Z,101209.47
2022-11-29T03:44:09.763Z,101212.59
2022-11-29T03:47:08.975Z,101207.00
2022-11-29T03:49:40.012Z,101218.09
2022-11-29T03:52:21.204Z,101220.81
2022-11-29T03:55:45.376Z,101218.34
2022-11-29T03:58:18.368Z,101214.53
2022-11-29T04:00:48.270Z,101223.03
2022-11-29T04:04:15.855Z,101223.50
2022-11-29T04:07:24.293Z,101220.78
2022-11-29T04:10:11.621Z,101229.75
2022-11-29T04:13:22.065Z,101221.84
2022-11-29T04:15:51.705Z,101229.34
2022-11-29T04:18:54.802Z,101230.00
2022-11-29T04:21:31.169Z,101226.50
2022-11-29T04:24:30.713Z,101231.38
2022-11-29T04:27:51.856Z,101239.25
2022-11-29T04:30:24.127Z,101234.50
2022-11-29T04:33:31.981Z,101237.66
2022-11-29T04:36:44.935Z,101229.31
2022-11-29T04:39:17.125Z,101228.25
2022-11-29T04:42:09.558Z,101241.25
2022-11-29T04:44:48.500Z,101233.28
2022-11-29T04:47:33.750Z,101240.38
2022-11-29T04:50:07.078Z,101253.75
2022-11-29T04:53:26.176Z,101256.22
2022-11-29T04:56:26.110Z,101261.22
2022-11-29T04:59:39.389Z,101270.34
2022-11-29T05:02:12.085Z,101260.38
2022-11-29T05:05:06.916Z,101266.16
2022-11-29T05:08:06.145Z,101264.94
2022-11-29T05:11:14.684Z,101279.84
2022-11-29T05:13:59.038Z,101275.22
2022-11-29T05:17:27.546Z,101278.31
2022-11-29T05:20:21.736Z,101274.72
2022-11-29T05:23:06.629Z,101277.16
2022-11-29T05:25:48.766Z,101287.06
2022-11-29T05:29:02.283Z,101296.75
2022-11-29T05:31:53.514Z,101296.97
2022-11-29T05:35:04.009Z,101290.94
2022-11-29T05:38:16.505Z,101295.94
2022-11-29T05:41:23.929Z,101295.06
2022-11-29T05:43:59.609Z,101301.44
2022-11-29T05:46:32.375Z,101308.78
2022-11-29T05:49:17.243Z,101318.09
2022-11-29T05:52:06.288Z,101322.25
2022-11-29T05:54:45.218Z,101320.03
2022-11-29T05:57:31.542Z,101319.06
2022-11-29T06:00:01.971Z,101326.78
2022-11-29T06:03:06.339Z,101318.25
2022-11-29T06:05:42.616Z,101330.84
2022-11-29T06:08:47.257Z,101328.13
2022-11-29T06:11:25.682Z,101330.59
2022-11-29T06:14:43.352Z,101341.84
2022-11-29T06:17:38.633Z,101335.47
2022-11-29T06:20:36.075Z,101347.44
2022-11-29T06:23:18.146Z,101349.94
2022-11-29T06:26:25.217Z,101352.09
2022-11-29T06:29:44.956Z,101352.34
2022-11-29T06:32:55.492Z,101355.84
2022-11-29T06:35:45.874Z,101350.59
2022-11-29T06:38:29.790Z,101351.59
2022-11-29T06:41:02.071Z,101363.34
2022-11-29T06:43:30.639Z,101363.78
2022-11-29T06:46:14.930Z,101361.28
2022-11-29T06:49:09.374Z,101359.06
2022-11-29T06:52:00.506Z,101351.88
2022-11-29T06:54:54.050Z,101356.25
2022-11-29T06:58:08.210Z,101362.50
2022-11-29T07:00:52.099Z,101362.25
2022-11-29T07:03:46.788Z,101372.41
2022-11-29T07:06:24.399Z,101375.19
2022-11-29T07:09:00.219Z,101380.47
2022-11-29T07:11:28.406Z,101379.94
2022-11-29T07:13:58.098Z,101388.09
2022-11-29T07:16:37.185Z,101383.06
2022-11-29T07:19:32.943Z,101397.75
2022-11-29T07:22:30.960Z,101390.69
2022-11-29T07:25:21.010Z,101399.91
2022-11-29T07:27:52.640Z,101401.25
2022-11-29T07:30:43.635Z,101400.03
2022-11-29T07:33:28.871Z,101407.47
2022-11-29T07:36:06.833Z,101411.53
2022-11-29T07:38:58.832Z,101409.81
2022-11-29T07:41:44.389Z,101408.59
2022-11-29T07:44:46.862Z,101413.50
2022-11-29T07:47:14.148Z,101422.56
2022-11-29T07:49:45.699Z,101416.44
2022-11-29T07:52:15.672Z,101422.16
2022-11-29T07:54:45.783Z,101426.31
2022-11-29T07:57:15.588Z,101421.69
2022-11-29T07:59:42.590Z,101429.53
2022-11-29T08:02:12.115Z,101425.75
2022-11-29T08:04:46.010Z,101417.66
2022-11-29T08:07:13.214Z,101427.41
2022-11-29T08:09:40.279Z,101424.00
2022-11-29T08:12:07.450Z,101429.16
2022-11-29T08:14:34.528Z,101427.19
2022-11-29T08:17:04.018Z,101429.88
2022-11-29T08:19:33.308Z,101435.28
2022-11-29T08:22:02.666Z,101420.81
2022-11-29T08:24:29.888Z,101428.66
2022-11-29T08:26:59.375Z,101434.53
2022-11-29T08:29:26.477Z,101429.75
2022-11-29T08:31:56.219Z,101432.81
2022-11-29T08:34:24.987Z,101434.75
2022-11-29T08:36:57.565Z,101441.03
2022-11-29T08:39:24.785Z,101446.28
2022-11-29T08:41:52.031Z,101446.03
2022-11-29T08:44:19.159Z,101455.34
2022-11-29T08:47:04.848Z,101452.53
2022-11-29T08:49:33.420Z,101464.16
2022-11-29T08:52:18.970Z,101458.03
2022-11-29T08:54:48.430Z,101459.59
2022-11-29T08:57:39.325Z,101460.84
2022-11-29T09:00:07.958Z,101462.19
2022-11-29T09:02:36.731Z,101461.09
2022-11-29T09:05:05.763Z,101461.34
2022-11-29T09:07:33.500Z,101460.47
2022-11-29T09:10:05.103Z,101461.94
2022-11-29T09:12:41.437Z,101462.94
2022-11-29T09:15:11.999Z,101470.75
2022-11-29T09:17:41.496Z,101476.63
2022-11-29T09:20:09.223Z,101477.59
2022-11-29T09:22:40.561Z,101471.13
2022-11-29T09:25:10.270Z,101485.53
2022-11-29T09:27:37.314Z,101483.19
2022-11-29T09:30:05.192Z,101489.47
2022-11-29T09:32:32.428Z,101484.94
2022-11-29T09:35:01.825Z,101487.00
2022-11-29T09:37:31.270Z,101485.81
2022-11-29T09:39:58.316Z,101494.50
2022-11-29T09:42:56.662Z,101497.19
2022-11-29T09:45:42.578Z,101492.66
2022-11-29T09:48:22.886Z,101495.00
2022-11-29T09:51:13.919Z,101503.94
2022-11-29T09:54:06.357Z,101502.22
2022-11-29T09:56:42.569Z,101502.34
2022-11-29T09:59:18.835Z,101498.91
2022-11-29T10:01:53.789Z,101505.50
2022-11-29T10:04:29.751Z,101502.53
2022-11-29T10:07:14.206Z,101502.19
2022-11-29T10:09:52.306Z,101493.41
2022-11-29T10:13:12.527Z,101495.69
2022-11-29T10:15:44.139Z,101502.69
2022-11-29T10:18:38.582Z,101495.25
2022-11-29T10:21:21.727Z,101499.78
2022-11-29T10:23:57.870Z,101502.41
2022-11-29T10:26:33.586Z,101493.41
2022-11-29T10:29:04.668Z,101494.72
2022-11-29T10:31:43.369Z,101496.75
2022-11-29T10:34:23.060Z,101499.53
2022-11-29T10:36:59.725Z,101497.56
2022-11-29T10:39:59.622Z,101505.06
2022-11-29T10:42:47.706Z,101499.31
2022-11-29T10:45:35.553Z,101505.19
2022-11-29T10:48:04.272Z,101501.47
2022-11-29T10:50:36.970Z,101503.19
2022-11-29T10:53:26.611Z,101497.69
2022-11-29T10:56:00.848Z,101496.75
2022-11-29T10:58:32.594Z,101502.69
2022-11-29T11:01:02.468Z,101494.59
2022-11-29T11:03:53.140Z,101503.72
2022-11-29T11:06:44.702Z,101502.09
2022-11-29T11:09:22.811Z,101503.09
2022-11-29T11:11:59.912Z,101501.88
2022-11-29T11:14:36.359Z,101505.34
2022-11-29T11:17:32.671Z,101506.09
2022-11-29T11:20:06.749Z,101513.19
2022-11-29T11:22:36.547Z,101513.47
2022-11-29T11:25:31.739Z,101510.84
2022-11-29T11:28:22.282Z,101507.00
2022-11-29T11:31:04.998Z,101508.75
2022-11-29T11:33:37.785Z,101508.13
2022-11-29T11:36:26.136Z,101509.59
2022-11-29T11:39:09.348Z,101513.91
2022-11-29T11:42:01.860Z,101509.69
2022-11-29T11:44:48.661Z,101516.06
2022-11-29T11:47:24.539Z,101515.59
2022-11-29T11:50:02.187Z,101513.63
2022-11-29T11:52:53.171Z,101522.69
2022-11-29T11:55:30.367Z,101521.22
2022-11-29T11:58:16.104Z,101517.38
2022-11-29T12:01:03.980Z,101523.97
2022-11-29T12:04:08.585Z,101529.88
2022-11-29T12:06:58.916Z,101520.50
2022-11-29T12:09:42.543Z,101525.00
2022-11-29T12:12:24.323Z,101525.59
2022-11-29T12:15:03.081Z,101526.31
2022-11-29T12:18:08.549Z,101522.84
2022-11-29T12:21:00.757Z,101529.69
2022-11-29T12:23:30.547Z,101540.84
2022-11-29T12:26:03.586Z,101533.47
2022-11-29T12:28:39.381Z,101536.69
2022-11-29T12:31:41.491Z,101542.44
2022-11-29T12:34:46.063Z,101543.88
2022-11-29T12:37:33.102Z,101544.78
2022-11-29T12:40:11.792Z,101543.38
2022-11-29T12:43:00.298Z,101547.06
2022-11-29T12:46:09.035Z,101549.22
2022-11-29T12:48:50.952Z,101551.13
2022-11-29T12:51:51.835Z,101558.56
2022-11-29T12:54:45.336Z,101557.78
2022-11-29T12:57:58.246Z,101556.78
2022-11-29T13:00:35.210Z,101561.59
2022-11-29T13:03:55.733Z,101571.84
2022-11-29T13:06:50.295Z,101570.16
2022-11-29T13:09:46.196Z,101570.03
2022-11-29T13:12:42.064Z,101575.50
2022-11-29T13:15:22.987Z,101576.97
2022-11-29T13:18:23.293Z,101572.31
2022-11-29T13:21:28.144Z,101580.41
2022-11-29T13:24:15.697Z,101577.78
2022-11-29T13:26:48.070Z,101581.28
2022-11-29T13:29:17.753Z,101579.38
2022-11-29T13:31:47.322Z,101589.50
2022-11-29T13:34:29.068Z,101586.41
2022-11-29T13:37:20.200Z,101580.91
2022-11-29T13:40:14.105Z,101587.16
2022-11-29T13:43:17.733Z,101594.41
2022-11-29T13:46:01.650Z,101579.56
2022-11-29T13:48:30.996Z,101584.72
2022-11-29T13:50:58.614Z,101589.88
2022-11-29T13:53:48.449Z,101593.69
2022-11-29T13:56:32.936Z,101577.88
2022-11-29T13:59:01.217Z,101586.75
2022-11-29T14:01:28.978Z,101586.75
2022-11-29T14:04:14.675Z,101593.63
2022-11-29T14:06:41.988Z,101591.94
2022-11-29T14:09:58.460Z,101590.22
2022-11-29T14:13:05.969Z,101596.63
2022-11-29T14:15:33.324Z,101596.97
2022-11-29T14:18:08.605Z,101602.00
2022-11-29T14:20:53.383Z,101601.63
2022-11-29T14:23:42.985Z,101595.25
2022-11-29T14:26:09.870Z,101605.66
2022-11-29T14:28:39.888Z,101611.53
2022-11-29T14:31:09.531Z,101603.22
2022-11-29T14:34:03.538Z,101609.59
2022-11-29T14:36:54.079Z,101613.03
2022-11-29T14:39:41.295Z,101614.97
2022-11-29T14:42:19.506Z,101613.88
2022-11-29T14:44:54.582Z,101615.97
2022-11-29T14:47:31.927Z,101620.63
2022-11-29T14:50:07.585Z,101613.50
2022-11-29T14:52:51.019Z,101611.78
2022-11-29T14:55:17.889Z,101609.84
2022-11-29T14:57:50.266Z,101613.75
2022-11-29T15:00:21.519Z,101614.72
2022-11-29T15:02:57.930Z,101612.28
2022-11-29T15:05:46.801Z,101624.16
2022-11-29T15:08:44.363Z,101612.53
2022-11-29T15:11:33.090Z,101624.78
2022-11-29T15:14:12.547Z,101621.59
2022-11-29T15:16:58.814Z,101620.88
2022-11-29T15:20:11.209Z,101624.53
2022-11-29T15:22:53.640Z,101637.50
2022-11-29T15:25:31.363Z,101631.66
2022-11-29T15:28:03.134Z,101636.91
2022-11-29T15:30:34.973Z,101638.84
2022-11-29T15:33:05.943Z,101643.88
2022-11-29T15:35:36.928Z,101653.56
2022-11-29T15:38:06.045Z,101640.47
2022-11-29T15:40:37.159Z,101641.56
2022-11-29T15:43:23.492Z,101646.84
2022-11-29T15:45:55.749Z,101653.69
2022-11-29T15:48:27.931Z,101656.84
2022-11-29T15:51:03.872Z,101652.69
2022-11-29T15:53:48.278Z,101654.56
2022-11-29T15:56:55.972Z,101657.63
2022-11-29T15:59:48.227Z,101660.31
2022-11-29T16:02:31.689Z,101657.84
2022-11-29T16:05:27.531Z,101660.56
2022-11-29T16:07:59.915Z,101649.41
2022-11-29T16:10:43.448Z,101657.63
2022-11-29T16:14:01.215Z,101658.22
2022-11-29T16:16:32.835Z,101662.78
2022-11-29T16:19:29.965Z,101660.31
2022-11-29T16:22:24.090Z,101664.22
2022-11-29T16:25:03.862Z,101670.09
2022-11-29T16:27:37.271Z,101668.75
2022-11-29T16:30:08.388Z,101665.53
2022-11-29T16:32:41.708Z,101662.88
2022-11-29T16:35:29.740Z,101673.06
2022-11-29T16:38:00.546Z,101664.84
2022-11-29T16:40:34.496Z,101669.13
2022-11-29T16:43:06.485Z,101679.69
2022-11-29T16:45:41.515Z,101681.88
2022-11-29T16:48:30.483Z,101678.44
2022-11-29T16:51:13.421Z,101684.03
2022-11-29T16:53:49.819Z,101684.13
2022-11-29T16:56:28.284Z,101692.81
2022-11-29T16:59:20.560Z,101700.28
2022-11-29T17:01:52.541Z,101709.19
2022-11-29T17:04:23.492Z,101700.56
2022-11-29T17:06:57.784Z,101710.88
2022-11-29T17:09:31.699Z,101707.19
2022-11-29T17:12:02.898Z,101705.38
2022-11-29T17:14:31.524Z,101701.19
2022-11-29T17:17:01.386Z,101713.22
2022-11-29T17:19:31.957Z,101723.63
2022-11-29T17:22:04.891Z,101722.78
2022-11-29T17:24:37.066Z,101726.91
2022-11-29T17:27:04.608Z,101724.19
2022-11-29T17:29:31.702Z,101731.06
2022-11-29T17:31:58.839Z,101726.19
2022-11-29T17:34:25.837Z,101730.50
2022-11-29T17:36:55.106Z,101729.66
2022-11-29T17:39:22.633Z,101736.34
2022-11-29T17:42:10.983Z,101738.41
2022-11-29T17:45:17.630Z,101742.63
2022-11-29T17:48:13.030Z,101738.22
2022-11-29T17:50:51.411Z,101745.38
2022-11-29T17:53:51.868Z,101743.13
2022-11-29T17:56:32.182Z,101741.78
2022-11-29T17:59:32.958Z,101749.75
2022-11-29T18:02:37.564Z,101746.38
2022-11-29T18:05:36.519Z,101757.78
2022-11-29T18:08:15.773Z,101752.13
2022-11-29T18:11:44.913Z,101763.03
2022-11-29T18:14:50.895Z,101758.13
2022-11-29T18:17:53.798Z,101751.06
2022-11-29T18:20:51.705Z,101756.69
2022-11-29T18:24:01.626Z,101760.75
2022-11-29T18:27:08.166Z,101751.47
2022-11-29T18:29:58.112Z,101760.81
2022-11-29T18:32:53.807Z,101759.56
2022-11-29T18:36:07.532Z,101766.50
2022-11-29T18:38:46.166Z,101757.41
2022-11-29T18:41:49.831Z,101759.91
2022-11-29T18:47:53.009Z,101753.56
2022-11-29T18:57:44.722Z,101750.97
2022-11-29T19:03:25.982Z,101758.22
2022-11-29T19:05:54.172Z,101759.34
2022-11-29T19:08:23.599Z,101764.47
2022-11-29T19:10:50.416Z,101754.50
2022-11-29T19:13:19.412Z,101755.88
2022-11-29T19:15:57.609Z,101751.19
2022-11-29T19:18:26.845Z,101762.13
2022-11-29T19:20:53.874Z,101764.22
2022-11-29T19:23:21.679Z,101767.69
2022-11-29T19:25:51.616Z,101769.13
2022-11-29T19:28:21.075Z,101771.56
2022-11-29T19:30:58.819Z,101764.97
2022-11-29T19:33:26.085Z,101770.44
2022-11-29T19:35:58.360Z,101765.44
2022-11-29T19:38:29.999Z,101774.53
2022-11-29T19:40:56.885Z,101780.13
2022-11-29T19:43:23.860Z,101770.84
2022-11-29T19:45:50.994Z,101778.44
2022-11-29T19:48:18.017Z,101770.56
2022-11-29T19:50:47.253Z,101776.50
2022-11-29T19:53:18.540Z,101778.94
2022-11-29T19:55:45.652Z,101772.38
2022-11-29T19:58:14.976Z,101780.59
2022-11-29T20:00:42.027Z,101772.00
2022-11-29T20:03:13.859Z,101777.53
2022-11-29T20:05:43.110Z,101787.69
2022-11-29T20:08:18.431Z,101785.25
2022-11-29T20:10:53.545Z,101788.81
2022-11-29T20:13:21.160Z,101787.47
2022-11-29T20:15:48.445Z,101787.94
2022-11-29T20:18:15.544Z,101790.41
2022-11-29T20:20:42.489Z,101786.09
2022-11-29T20:23:11.898Z,101788.81
2022-11-29T20:25:38.876Z,101799.59
2022-11-29T20:28:08.456Z,101800.56
2022-11-29T20:30:38.066Z,101805.00
2022-11-29T20:33:07.570Z,101800.22
2022-11-29T20:35:37.723Z,101809.28
2022-11-29T20:38:41.782Z,101808.06
2022-11-29T20:41:25.370Z,101807.69
2022-11-29T20:44:02.503Z,101808.28
2022-11-29T20:46:31.160Z,101804.09
2022-11-29T20:49:06.329Z,101804.53
2022-11-29T20:51:44.624Z,101804.41
2022-11-29T20:54:15.034Z,101801.38
2022-11-29T20:56:42.055Z,101803.91
2022-11-29T20:59:09.113Z,101806.75
2022-11-29T21:01:36.185Z,101806.13
2022-11-29T21:04:03.370Z,101802.91
2022-11-29T21:06:30.508Z,101809.22
2022-11-29T21:08:57.609Z,101808.59
2022-11-29T21:11:25.407Z,101811.28
2022-11-29T21:13:52.695Z,101815.47
2022-11-29T21:16:27.675Z,101807.88
2022-11-29T21:19:00.715Z,101805.66
2022-11-29T21:21:44.811Z,101797.97
2022-11-29T21:24:46.668Z,101804.25
2022-11-29T21:27:33.219Z,101802.38
2022-11-29T21:30:06.175Z,101803.72
2022-11-29T21:32:36.570Z,101799.38
2022-11-29T21:35:03.758Z,101800.16
2022-11-29T21:37:33.581Z,101810.97
2022-11-29T21:40:00.811Z,101814.09
2022-11-29T21:42:27.733Z,101809.91
2022-11-29T21:44:54.753Z,101818.84
2022-11-29T21:47:24.697Z,101822.09
2022-11-29T21:49:52.848Z,101813.94
2022-11-29T21:52:22.846Z,101817.06
2022-11-29T21:54:50.438Z,101815.13
2022-11-29T21:57:17.556Z,101819.16
2022-11-29T21:59:44.562Z,101817.25
2022-11-29T22:02:11.634Z,101811.44
2022-11-29T22:04:38.828Z,101821.72
2022-11-29T22:07:10.350Z,101823.69
2022-11-29T22:09:37.266Z,101820.34
2022-11-29T22:12:25.766Z,101820.81
2022-11-29T22:14:51.313Z,101821.81
2022-11-29T22:17:18.255Z,101830.53
2022-11-29T22:19:47.727Z,101829.25
2022-11-29T22:22:14.797Z,101824.78
2022-11-29T22:24:41.676Z,101835.31
2022-11-29T22:27:08.663Z,101827.47
2022-11-29T22:29:37.854Z,101830.66
2022-11-29T22:32:05.240Z,101841.19
2022-11-29T22:34:34.695Z,101829.94
2022-11-29T22:37:01.609Z,101833.31
2022-11-29T22:39:31.090Z,101829.91
2022-11-29T22:41:58.005Z,101836.41
2022-11-29T22:44:30.223Z,101834.63
2022-11-29T22:47:04.199Z,101830.81
2022-11-29T22:49:33.200Z,101830.31
2022-11-29T22:52:02.665Z,101834.09
2022-11-29T22:54:29.701Z,101840.00
2022-11-29T22:57:01.259Z,101835.94
2022-11-29T22:59:30.203Z,101831.41
2022-11-29T23:02:00.304Z,101840.44
2022-11-29T23:04:27.315Z,101845.41
2022-11-29T23:06:54.219Z,101850.72
2022-11-29T23:09:23.866Z,101854.44
2022-11-29T23:11:56.275Z,101847.13
2022-11-29T23:14:25.902Z,101844.91
2022-11-29T23:16:53.120Z,101849.78
2022-11-29T23:19:20.450Z,101839.19
2022-11-29T23:21:47.936Z,101843.06
2022-11-29T23:24:15.950Z,101838.19
2022-11-29T23:26:51.476Z,101843.31
2022-11-29T23:29:20.044Z,101840.50
2022-11-29T23:31:50.364Z,101844.13
2022-11-29T23:34:17.613Z,101846.06
2022-11-29T23:36:52.704Z,101841.09
2022-11-29T23:39:20.589Z,101851.94
2022-11-29T23:41:47.576Z,101853.66
2022-11-29T23:44:16.752Z,101850.97
2022-11-29T23:46:43.637Z,101854.78
2022-11-29T23:49:10.659Z,101854.94
2022-11-29T23:51:37.487Z,101848.16
2022-11-29T23:54:09.506Z,101851.34
2022-11-29T23:56:38.660Z,101851.81
2022-11-29T23:59:05.737Z,101853.31
